sensor_id;sensor_type;location;lat;lon;timestamp;P1;durP1;ratioP1;P2;durP2;ratioP2
2874;SDS011;1445;52.600;13.328;2022-07-04T00:00:06;2.90;;;2.70;;
2874;SDS011;1445;52.600;13.328;2022-07-04T00:02:33;3.80;;;2.60;;
2874;SDS011;1445;52.600;13.328;2022-07-04T00:04:58;3.00;;;2.70;;
2874;SDS011;1445;52.600;13.328;2022-07-04T00:07:24;2.90;;;2.70;;
2874;SDS011;1445;52.600;13.328;2022-07-04T00:09:50;3.00;;;2.70;;
2874;SDS011;1445;52.600;13.328;2022-07-04T00:12:15;3.50;;;3.20;;
2874;SDS011;1445;52.600;13.328;2022-07-04T00:14:41;3.08;;;2.70;;
2874;SDS011;1445;52.600;13.328;2022-07-04T00:17:06;2.80;;;2.60;;
2874;SDS011;1445;52.600;13.328;2022-07-04T00:19:32;3.47;;;3.17;;
2874;SDS011;1445;52.600;13.328;2022-07-04T00:21:58;3.35;;;2.72;;
2874;SDS011;1445;52.600;13.328;2022-07-04T00:24:23;3.28;;;2.67;;
2874;SDS011;1445;52.600;13.328;2022-07-04T00:26:49;3.00;;;2.70;;
2874;SDS011;1445;52.600;13.328;2022-07-04T00:29:14;2.83;;;2.58;;
2874;SDS011;1445;52.600;13.328;2022-07-04T00:31:40;4.03;;;2.70;;
2874;SDS011;1445;52.600;13.328;2022-07-04T00:34:06;2.60;;;2.40;;
2874;SDS011;1445;52.600;13.328;2022-07-04T00:36:31;2.85;;;2.63;;
2874;SDS011;1445;52.600;13.328;2022-07-04T00:38:57;4.20;;;2.63;;
2874;SDS011;1445;52.600;13.328;2022-07-04T00:41:22;3.00;;;2.65;;
2874;SDS011;1445;52.600;13.328;2022-07-04T00:44:04;3.00;;;2.70;;
2874;SDS011;1445;52.600;13.328;2022-07-04T00:46:30;3.10;;;2.80;;
2874;SDS011;1445;52.600;13.328;2022-07-04T00:48:57;3.13;;;2.83;;
2874;SDS011;1445;52.600;13.328;2022-07-04T00:51:22;3.20;;;2.90;;
2874;SDS011;1445;52.600;13.328;2022-07-04T00:53:49;2.88;;;2.65;;
2874;SDS011;1445;52.600;13.328;2022-07-04T00:56:16;2.90;;;2.70;;
2874;SDS011;1445;52.600;13.328;2022-07-04T00:58:42;3.88;;;3.53;;
2874;SDS011;1445;52.600;13.328;2022-07-04T01:01:07;4.15;;;2.90;;
2874;SDS011;1445;52.600;13.328;2022-07-04T01:03:32;3.50;;;3.03;;
2874;SDS011;1445;52.600;13.328;2022-07-04T01:05:58;3.35;;;3.00;;
2874;SDS011;1445;52.600;13.328;2022-07-04T01:08:25;3.22;;;3.00;;
2874;SDS011;1445;52.600;13.328;2022-07-04T01:10:51;5.25;;;3.17;;
2874;SDS011;1445;52.600;13.328;2022-07-04T01:13:22;4.65;;;2.90;;
2874;SDS011;1445;52.600;13.328;2022-07-04T01:15:49;3.65;;;3.30;;
2874;SDS011;1445;52.600;13.328;2022-07-04T01:18:18;4.50;;;3.08;;
2874;SDS011;1445;52.600;13.328;2022-07-04T01:20:43;3.47;;;3.08;;
2874;SDS011;1445;52.600;13.328;2022-07-04T01:23:09;4.32;;;3.00;;
2874;SDS011;1445;52.600;13.328;2022-07-04T01:25:35;3.75;;;3.15;;
2874;SDS011;1445;52.600;13.328;2022-07-04T01:28:01;3.45;;;3.13;;
2874;SDS011;1445;52.600;13.328;2022-07-04T01:30:27;4.10;;;2.92;;
2874;SDS011;1445;52.600;13.328;2022-07-04T01:32:54;3.45;;;3.20;;
2874;SDS011;1445;52.600;13.328;2022-07-04T01:35:20;4.45;;;4.05;;
2874;SDS011;1445;52.600;13.328;2022-07-04T01:37:46;3.70;;;3.40;;
2874;SDS011;1445;52.600;13.328;2022-07-04T01:40:12;3.97;;;3.67;;
2874;SDS011;1445;52.600;13.328;2022-07-04T01:42:38;4.38;;;3.97;;
2874;SDS011;1445;52.600;13.328;2022-07-04T01:45:05;4.30;;;3.90;;
2874;SDS011;1445;52.600;13.328;2022-07-04T01:47:31;4.07;;;3.78;;
2874;SDS011;1445;52.600;13.328;2022-07-04T01:49:57;4.95;;;4.55;;
2874;SDS011;1445;52.600;13.328;2022-07-04T01:52:22;5.20;;;4.70;;
2874;SDS011;1445;52.600;13.328;2022-07-04T01:54:48;7.10;;;4.97;;
2874;SDS011;1445;52.600;13.328;2022-07-04T01:57:13;5.15;;;4.72;;
2874;SDS011;1445;52.600;13.328;2022-07-04T01:59:39;5.78;;;5.18;;
2874;SDS011;1445;52.600;13.328;2022-07-04T02:02:23;5.90;;;5.00;;
2874;SDS011;1445;52.600;13.328;2022-07-04T02:04:49;5.40;;;4.90;;
2874;SDS011;1445;52.600;13.328;2022-07-04T02:07:14;5.97;;;5.47;;
2874;SDS011;1445;52.600;13.328;2022-07-04T02:09:40;6.30;;;5.80;;
2874;SDS011;1445;52.600;13.328;2022-07-04T02:12:05;6.38;;;5.82;;
2874;SDS011;1445;52.600;13.328;2022-07-04T02:17:14;6.95;;;6.35;;
2874;SDS011;1445;52.600;13.328;2022-07-04T02:19:40;6.50;;;5.90;;
2874;SDS011;1445;52.600;13.328;2022-07-04T02:22:05;6.20;;;5.63;;
2874;SDS011;1445;52.600;13.328;2022-07-04T02:24:30;6.82;;;6.15;;
2874;SDS011;1445;52.600;13.328;2022-07-04T02:26:56;6.65;;;6.05;;
2874;SDS011;1445;52.600;13.328;2022-07-04T02:29:21;6.68;;;6.07;;
2874;SDS011;1445;52.600;13.328;2022-07-04T02:31:46;7.40;;;6.70;;
2874;SDS011;1445;52.600;13.328;2022-07-04T02:34:12;7.05;;;6.45;;
2874;SDS011;1445;52.600;13.328;2022-07-04T02:36:37;7.18;;;6.55;;
2874;SDS011;1445;52.600;13.328;2022-07-04T02:39:03;7.43;;;6.72;;
2874;SDS011;1445;52.600;13.328;2022-07-04T02:41:32;7.10;;;6.50;;
2874;SDS011;1445;52.600;13.328;2022-07-04T02:43:58;7.70;;;6.95;;
2874;SDS011;1445;52.600;13.328;2022-07-04T02:46:24;7.72;;;7.03;;
2874;SDS011;1445;52.600;13.328;2022-07-04T02:48:49;7.15;;;6.55;;
2874;SDS011;1445;52.600;13.328;2022-07-04T02:51:15;8.00;;;7.30;;
2874;SDS011;1445;52.600;13.328;2022-07-04T02:53:40;7.82;;;7.13;;
2874;SDS011;1445;52.600;13.328;2022-07-04T02:56:06;9.88;;;8.43;;
2874;SDS011;1445;52.600;13.328;2022-07-04T02:58:32;8.57;;;7.43;;
2874;SDS011;1445;52.600;13.328;2022-07-04T03:00:58;7.88;;;7.18;;
2874;SDS011;1445;52.600;13.328;2022-07-04T03:03:24;7.78;;;7.07;;
2874;SDS011;1445;52.600;13.328;2022-07-04T03:05:50;8.30;;;7.60;;
2874;SDS011;1445;52.600;13.328;2022-07-04T03:08:15;7.90;;;7.20;;
2874;SDS011;1445;52.600;13.328;2022-07-04T03:10:41;8.82;;;7.63;;
2874;SDS011;1445;52.600;13.328;2022-07-04T03:13:06;7.60;;;6.90;;
2874;SDS011;1445;52.600;13.328;2022-07-04T03:15:31;8.38;;;6.88;;
2874;SDS011;1445;52.600;13.328;2022-07-04T03:17:57;7.53;;;6.93;;
2874;SDS011;1445;52.600;13.328;2022-07-04T03:20:22;8.15;;;7.35;;
2874;SDS011;1445;52.600;13.328;2022-07-04T03:22:48;11.77;;;7.45;;
2874;SDS011;1445;52.600;13.328;2022-07-04T03:25:14;8.50;;;7.65;;
2874;SDS011;1445;52.600;13.328;2022-07-04T03:27:39;9.57;;;8.55;;
2874;SDS011;1445;52.600;13.328;2022-07-04T03:30:05;9.27;;;8.35;;
2874;SDS011;1445;52.600;13.328;2022-07-04T03:32:31;8.73;;;7.43;;
2874;SDS011;1445;52.600;13.328;2022-07-04T03:34:56;10.20;;;9.10;;
2874;SDS011;1445;52.600;13.328;2022-07-04T03:37:22;11.63;;;9.00;;
2874;SDS011;1445;52.600;13.328;2022-07-04T03:39:47;10.23;;;9.18;;
2874;SDS011;1445;52.600;13.328;2022-07-04T03:42:12;12.35;;;10.15;;
2874;SDS011;1445;52.600;13.328;2022-07-04T03:44:38;10.85;;;9.73;;
2874;SDS011;1445;52.600;13.328;2022-07-04T03:47:03;12.90;;;9.75;;
2874;SDS011;1445;52.600;13.328;2022-07-04T03:49:29;12.43;;;10.98;;
2874;SDS011;1445;52.600;13.328;2022-07-04T03:51:54;14.75;;;10.02;;
2874;SDS011;1445;52.600;13.328;2022-07-04T03:54:19;12.40;;;10.43;;
2874;SDS011;1445;52.600;13.328;2022-07-04T03:56:45;11.80;;;10.60;;
2874;SDS011;1445;52.600;13.328;2022-07-04T03:59:10;9.85;;;8.95;;
2874;SDS011;1445;52.600;13.328;2022-07-04T04:01:35;10.77;;;9.77;;
2874;SDS011;1445;52.600;13.328;2022-07-04T04:04:01;11.60;;;10.35;;
2874;SDS011;1445;52.600;13.328;2022-07-04T04:06:45;11.30;;;10.20;;
2874;SDS011;1445;52.600;13.328;2022-07-04T04:09:10;12.02;;;10.93;;
2874;SDS011;1445;52.600;13.328;2022-07-04T04:11:41;12.20;;;11.00;;
2874;SDS011;1445;52.600;13.328;2022-07-04T04:14:07;11.18;;;9.95;;
2874;SDS011;1445;52.600;13.328;2022-07-04T04:16:32;12.23;;;11.00;;
2874;SDS011;1445;52.600;13.328;2022-07-04T04:18:58;13.40;;;10.80;;
2874;SDS011;1445;52.600;13.328;2022-07-04T04:21:23;11.18;;;10.15;;
2874;SDS011;1445;52.600;13.328;2022-07-04T04:23:48;11.77;;;10.68;;
2874;SDS011;1445;52.600;13.328;2022-07-04T04:26:14;11.02;;;9.90;;
2874;SDS011;1445;52.600;13.328;2022-07-04T04:28:39;10.50;;;9.50;;
2874;SDS011;1445;52.600;13.328;2022-07-04T04:31:04;11.18;;;9.80;;
2874;SDS011;1445;52.600;13.328;2022-07-04T04:33:30;10.40;;;9.40;;
2874;SDS011;1445;52.600;13.328;2022-07-04T04:35:55;10.50;;;8.45;;
2874;SDS011;1445;52.600;13.328;2022-07-04T04:38:21;9.63;;;8.73;;
2874;SDS011;1445;52.600;13.328;2022-07-04T04:40:46;9.80;;;8.20;;
2874;SDS011;1445;52.600;13.328;2022-07-04T04:43:11;9.40;;;7.85;;
2874;SDS011;1445;52.600;13.328;2022-07-04T04:45:37;10.00;;;8.57;;
2874;SDS011;1445;52.600;13.328;2022-07-04T04:48:02;8.98;;;8.05;;
2874;SDS011;1445;52.600;13.328;2022-07-04T04:50:28;10.15;;;8.38;;
2874;SDS011;1445;52.600;13.328;2022-07-04T04:52:53;8.93;;;8.00;;
2874;SDS011;1445;52.600;13.328;2022-07-04T04:55:18;9.13;;;7.57;;
2874;SDS011;1445;52.600;13.328;2022-07-04T04:57:44;8.00;;;7.20;;
2874;SDS011;1445;52.600;13.328;2022-07-04T05:00:09;7.53;;;6.40;;
2874;SDS011;1445;52.600;13.328;2022-07-04T05:02:35;8.70;;;6.55;;
2874;SDS011;1445;52.600;13.328;2022-07-04T05:05:01;8.70;;;6.63;;
2874;SDS011;1445;52.600;13.328;2022-07-04T05:07:26;7.15;;;5.70;;
2874;SDS011;1445;52.600;13.328;2022-07-04T05:09:52;6.85;;;5.72;;
2874;SDS011;1445;52.600;13.328;2022-07-04T05:12:23;6.25;;;5.68;;
2874;SDS011;1445;52.600;13.328;2022-07-04T05:14:49;7.97;;;6.68;;
2874;SDS011;1445;52.600;13.328;2022-07-04T05:17:14;6.65;;;6.05;;
2874;SDS011;1445;52.600;13.328;2022-07-04T05:19:39;6.90;;;6.30;;
2874;SDS011;1445;52.600;13.328;2022-07-04T05:22:05;8.23;;;6.18;;
2874;SDS011;1445;52.600;13.328;2022-07-04T05:24:30;6.75;;;5.72;;
2874;SDS011;1445;52.600;13.328;2022-07-04T05:26:56;6.53;;;5.90;;
2874;SDS011;1445;52.600;13.328;2022-07-04T05:29:21;7.38;;;6.05;;
2874;SDS011;1445;52.600;13.328;2022-07-04T05:31:46;8.90;;;6.35;;
2874;SDS011;1445;52.600;13.328;2022-07-04T05:34:12;6.05;;;5.40;;
2874;SDS011;1445;52.600;13.328;2022-07-04T05:36:37;6.15;;;5.20;;
2874;SDS011;1445;52.600;13.328;2022-07-04T05:39:03;5.82;;;5.22;;
2874;SDS011;1445;52.600;13.328;2022-07-04T05:41:28;5.05;;;4.55;;
2874;SDS011;1445;52.600;13.328;2022-07-04T05:43:54;5.85;;;4.90;;
2874;SDS011;1445;52.600;13.328;2022-07-04T05:46:19;5.78;;;4.63;;
2874;SDS011;1445;52.600;13.328;2022-07-04T05:48:47;4.53;;;4.13;;
2874;SDS011;1445;52.600;13.328;2022-07-04T05:51:13;6.25;;;3.50;;
2874;SDS011;1445;52.600;13.328;2022-07-04T05:53:38;4.43;;;2.83;;
2874;SDS011;1445;52.600;13.328;2022-07-04T05:56:04;3.67;;;2.85;;
2874;SDS011;1445;52.600;13.328;2022-07-04T05:58:30;4.78;;;2.55;;
2874;SDS011;1445;52.600;13.328;2022-07-04T06:00:55;3.47;;;2.75;;
2874;SDS011;1445;52.600;13.328;2022-07-04T06:03:20;4.05;;;2.10;;
2874;SDS011;1445;52.600;13.328;2022-07-04T06:05:46;2.63;;;2.08;;
2874;SDS011;1445;52.600;13.328;2022-07-04T06:08:11;3.03;;;1.90;;
2874;SDS011;1445;52.600;13.328;2022-07-04T06:10:37;3.33;;;1.83;;
2874;SDS011;1445;52.600;13.328;2022-07-04T06:13:02;2.10;;;1.60;;
2874;SDS011;1445;52.600;13.328;2022-07-04T06:15:27;2.17;;;1.88;;
2874;SDS011;1445;52.600;13.328;2022-07-04T06:17:53;1.95;;;1.50;;
2874;SDS011;1445;52.600;13.328;2022-07-04T06:20:18;1.92;;;1.50;;
2874;SDS011;1445;52.600;13.328;2022-07-04T06:22:46;4.53;;;2.05;;
2874;SDS011;1445;52.600;13.328;2022-07-04T06:25:13;3.00;;;1.58;;
2874;SDS011;1445;52.600;13.328;2022-07-04T06:27:40;3.22;;;1.63;;
2874;SDS011;1445;52.600;13.328;2022-07-04T06:30:06;3.88;;;1.67;;
2874;SDS011;1445;52.600;13.328;2022-07-04T06:35:16;3.50;;;1.70;;
2874;SDS011;1445;52.600;13.328;2022-07-04T06:38:01;5.30;;;1.67;;
2874;SDS011;1445;52.600;13.328;2022-07-04T06:40:27;2.05;;;1.40;;
2874;SDS011;1445;52.600;13.328;2022-07-04T06:42:52;3.65;;;1.60;;
2874;SDS011;1445;52.600;13.328;2022-07-04T06:45:17;2.60;;;1.45;;
2874;SDS011;1445;52.600;13.328;2022-07-04T06:47:43;4.53;;;1.50;;
2874;SDS011;1445;52.600;13.328;2022-07-04T06:50:10;2.90;;;1.85;;
2874;SDS011;1445;52.600;13.328;2022-07-04T06:52:35;4.95;;;1.80;;
2874;SDS011;1445;52.600;13.328;2022-07-04T06:55:01;3.13;;;1.70;;
2874;SDS011;1445;52.600;13.328;2022-07-04T06:57:27;2.67;;;1.10;;
2874;SDS011;1445;52.600;13.328;2022-07-04T06:59:52;2.38;;;1.00;;
2874;SDS011;1445;52.600;13.328;2022-07-04T07:02:17;1.45;;;1.00;;
2874;SDS011;1445;52.600;13.328;2022-07-04T07:04:43;1.67;;;0.90;;
2874;SDS011;1445;52.600;13.328;2022-07-04T07:07:08;1.10;;;0.98;;
2874;SDS011;1445;52.600;13.328;2022-07-04T07:09:34;2.17;;;0.98;;
2874;SDS011;1445;52.600;13.328;2022-07-04T07:11:59;1.27;;;0.90;;
2874;SDS011;1445;52.600;13.328;2022-07-04T07:14:25;1.58;;;1.00;;
2874;SDS011;1445;52.600;13.328;2022-07-04T07:16:50;2.60;;;1.48;;
2874;SDS011;1445;52.600;13.328;2022-07-04T07:19:16;1.20;;;1.00;;
2874;SDS011;1445;52.600;13.328;2022-07-04T07:21:41;2.42;;;1.20;;
2874;SDS011;1445;52.600;13.328;2022-07-04T07:24:06;1.45;;;1.08;;
2874;SDS011;1445;52.600;13.328;2022-07-04T07:26:32;1.88;;;1.20;;
2874;SDS011;1445;52.600;13.328;2022-07-04T07:28:57;3.40;;;1.20;;
2874;SDS011;1445;52.600;13.328;2022-07-04T07:31:22;1.48;;;1.00;;
2874;SDS011;1445;52.600;13.328;2022-07-04T07:33:48;1.63;;;1.00;;
2874;SDS011;1445;52.600;13.328;2022-07-04T07:36:13;2.00;;;1.00;;
2874;SDS011;1445;52.600;13.328;2022-07-04T07:38:38;2.88;;;0.95;;
2874;SDS011;1445;52.600;13.328;2022-07-04T07:41:07;1.92;;;1.00;;
2874;SDS011;1445;52.600;13.328;2022-07-04T07:43:34;2.17;;;0.95;;
2874;SDS011;1445;52.600;13.328;2022-07-04T07:45:59;3.53;;;1.10;;
2874;SDS011;1445;52.600;13.328;2022-07-04T07:48:25;1.60;;;1.10;;
2874;SDS011;1445;52.600;13.328;2022-07-04T07:50:50;1.15;;;1.00;;
2874;SDS011;1445;52.600;13.328;2022-07-04T07:53:15;2.42;;;1.00;;
2874;SDS011;1445;52.600;13.328;2022-07-04T07:55:41;1.75;;;1.08;;
2874;SDS011;1445;52.600;13.328;2022-07-04T07:58:07;2.05;;;0.93;;
2874;SDS011;1445;52.600;13.328;2022-07-04T08:00:32;1.13;;;0.90;;
2874;SDS011;1445;52.600;13.328;2022-07-04T08:02:57;1.70;;;1.10;;
2874;SDS011;1445;52.600;13.328;2022-07-04T08:05:41;3.00;;;1.10;;
2874;SDS011;1445;52.600;13.328;2022-07-04T08:08:07;3.00;;;0.90;;
2874;SDS011;1445;52.600;13.328;2022-07-04T08:10:35;2.40;;;0.90;;
2874;SDS011;1445;52.600;13.328;2022-07-04T08:13:00;1.95;;;1.00;;
2874;SDS011;1445;52.600;13.328;2022-07-04T08:15:26;1.20;;;0.90;;
2874;SDS011;1445;52.600;13.328;2022-07-04T08:17:51;1.60;;;0.93;;
2874;SDS011;1445;52.600;13.328;2022-07-04T08:20:18;1.58;;;0.95;;
2874;SDS011;1445;52.600;13.328;2022-07-04T08:22:43;1.27;;;1.00;;
2874;SDS011;1445;52.600;13.328;2022-07-04T08:25:09;1.58;;;1.00;;
2874;SDS011;1445;52.600;13.328;2022-07-04T08:27:34;1.48;;;1.20;;
2874;SDS011;1445;52.600;13.328;2022-07-04T08:30:00;1.30;;;0.93;;
2874;SDS011;1445;52.600;13.328;2022-07-04T08:32:26;2.80;;;1.13;;
2874;SDS011;1445;52.600;13.328;2022-07-04T08:34:51;1.35;;;1.00;;
2874;SDS011;1445;52.600;13.328;2022-07-04T08:37:17;2.15;;;1.00;;
2874;SDS011;1445;52.600;13.328;2022-07-04T08:39:43;2.38;;;1.27;;
2874;SDS011;1445;52.600;13.328;2022-07-04T08:42:13;5.10;;;1.20;;
2874;SDS011;1445;52.600;13.328;2022-07-04T08:44:41;5.63;;;1.27;;
2874;SDS011;1445;52.600;13.328;2022-07-04T08:47:18;5.40;;;1.42;;
2874;SDS011;1445;52.600;13.328;2022-07-04T08:49:46;2.38;;;1.20;;
2874;SDS011;1445;52.600;13.328;2022-07-04T08:52:35;1.95;;;1.10;;
2874;SDS011;1445;52.600;13.328;2022-07-04T08:55:02;1.52;;;1.20;;
2874;SDS011;1445;52.600;13.328;2022-07-04T08:57:47;1.30;;;0.80;;
2874;SDS011;1445;52.600;13.328;2022-07-04T09:00:32;1.20;;;0.95;;
2874;SDS011;1445;52.600;13.328;2022-07-04T09:02:59;1.70;;;1.00;;
2874;SDS011;1445;52.600;13.328;2022-07-04T09:05:27;1.63;;;1.00;;
2874;SDS011;1445;52.600;13.328;2022-07-04T09:07:53;1.38;;;0.90;;
2874;SDS011;1445;52.600;13.328;2022-07-04T09:10:19;2.40;;;1.05;;
2874;SDS011;1445;52.600;13.328;2022-07-04T09:12:47;1.45;;;1.00;;
2874;SDS011;1445;52.600;13.328;2022-07-04T09:15:13;3.95;;;1.20;;
2874;SDS011;1445;52.600;13.328;2022-07-04T09:17:39;3.58;;;1.52;;
2874;SDS011;1445;52.600;13.328;2022-07-04T09:20:11;3.13;;;1.20;;
2874;SDS011;1445;52.600;13.328;2022-07-04T09:22:39;1.73;;;1.13;;
2874;SDS011;1445;52.600;13.328;2022-07-04T09:25:05;2.17;;;1.20;;
2874;SDS011;1445;52.600;13.328;2022-07-04T09:29:58;4.18;;;1.30;;
2874;SDS011;1445;52.600;13.328;2022-07-04T09:35:05;1.38;;;0.98;;
2874;SDS011;1445;52.600;13.328;2022-07-04T09:37:38;2.03;;;1.00;;
2874;SDS011;1445;52.600;13.328;2022-07-04T09:40:10;2.83;;;0.90;;
2874;SDS011;1445;52.600;13.328;2022-07-04T09:42:46;1.42;;;0.90;;
2874;SDS011;1445;52.600;13.328;2022-07-04T09:45:11;2.08;;;0.93;;
2874;SDS011;1445;52.600;13.328;2022-07-04T09:47:40;1.50;;;0.90;;
2874;SDS011;1445;52.600;13.328;2022-07-04T09:52:33;2.20;;;0.80;;
2874;SDS011;1445;52.600;13.328;2022-07-04T09:57:50;1.63;;;0.80;;
2874;SDS011;1445;52.600;13.328;2022-07-04T10:02:45;2.28;;;1.00;;
2874;SDS011;1445;52.600;13.328;2022-07-04T10:05:11;1.52;;;0.98;;
2874;SDS011;1445;52.600;13.328;2022-07-04T10:07:38;1.75;;;0.75;;
2874;SDS011;1445;52.600;13.328;2022-07-04T10:10:29;1.48;;;0.70;;
2874;SDS011;1445;52.600;13.328;2022-07-04T10:13:03;2.22;;;0.90;;
2874;SDS011;1445;52.600;13.328;2022-07-04T10:15:31;2.40;;;1.05;;
2874;SDS011;1445;52.600;13.328;2022-07-04T10:17:57;2.15;;;0.90;;
2874;SDS011;1445;52.600;13.328;2022-07-04T10:20:23;3.38;;;1.00;;
2874;SDS011;1445;52.600;13.328;2022-07-04T10:22:49;2.00;;;0.88;;
2874;SDS011;1445;52.600;13.328;2022-07-04T10:25:15;1.30;;;0.90;;
2874;SDS011;1445;52.600;13.328;2022-07-04T10:27:40;2.35;;;1.10;;
2874;SDS011;1445;52.600;13.328;2022-07-04T10:30:06;1.45;;;1.00;;
2874;SDS011;1445;52.600;13.328;2022-07-04T10:32:36;2.65;;;0.95;;
2874;SDS011;1445;52.600;13.328;2022-07-04T10:35:02;1.98;;;1.00;;
2874;SDS011;1445;52.600;13.328;2022-07-04T10:48:47;4.10;;;1.08;;
2874;SDS011;1445;52.600;13.328;2022-07-04T10:51:18;2.65;;;1.00;;
2874;SDS011;1445;52.600;13.328;2022-07-04T10:53:57;0.90;;;0.82;;
2874;SDS011;1445;52.600;13.328;2022-07-04T10:58:52;2.10;;;0.93;;
2874;SDS011;1445;52.600;13.328;2022-07-04T11:01:18;2.45;;;0.90;;
2874;SDS011;1445;52.600;13.328;2022-07-04T11:03:47;2.40;;;1.02;;
2874;SDS011;1445;52.600;13.328;2022-07-04T11:17:14;1.33;;;0.98;;
2874;SDS011;1445;52.600;13.328;2022-07-04T11:19:44;2.00;;;1.00;;
2874;SDS011;1445;52.600;13.328;2022-07-04T11:22:10;2.15;;;1.00;;
2874;SDS011;1445;52.600;13.328;2022-07-04T11:24:36;1.35;;;0.75;;
2874;SDS011;1445;52.600;13.328;2022-07-04T11:27:03;1.42;;;0.90;;
2874;SDS011;1445;52.600;13.328;2022-07-04T11:29:31;1.58;;;0.77;;
2874;SDS011;1445;52.600;13.328;2022-07-04T11:31:57;1.75;;;0.80;;
2874;SDS011;1445;52.600;13.328;2022-07-04T11:34:22;1.73;;;0.90;;
2874;SDS011;1445;52.600;13.328;2022-07-04T11:36:49;8.35;;;1.10;;
2874;SDS011;1445;52.600;13.328;2022-07-04T11:39:17;3.88;;;1.10;;
2874;SDS011;1445;52.600;13.328;2022-07-04T11:41:50;1.45;;;1.23;;
2874;SDS011;1445;52.600;13.328;2022-07-04T11:44:36;1.63;;;0.80;;
2874;SDS011;1445;52.600;13.328;2022-07-04T11:47:25;1.08;;;0.70;;
2874;SDS011;1445;52.600;13.328;2022-07-04T11:49:58;2.75;;;0.90;;
2874;SDS011;1445;52.600;13.328;2022-07-04T11:52:25;2.33;;;0.80;;
2874;SDS011;1445;52.600;13.328;2022-07-04T11:54:55;0.80;;;0.70;;
2874;SDS011;1445;52.600;13.328;2022-07-04T11:57:25;1.40;;;0.70;;
2874;SDS011;1445;52.600;13.328;2022-07-04T11:59:53;2.47;;;0.80;;
2874;SDS011;1445;52.600;13.328;2022-07-04T12:02:24;0.90;;;0.80;;
2874;SDS011;1445;52.600;13.328;2022-07-04T12:04:51;0.85;;;0.70;;
2874;SDS011;1445;52.600;13.328;2022-07-04T12:07:18;1.70;;;0.85;;
2874;SDS011;1445;52.600;13.328;2022-07-04T12:09:45;1.98;;;0.90;;
2874;SDS011;1445;52.600;13.328;2022-07-04T12:12:12;1.60;;;0.80;;
2874;SDS011;1445;52.600;13.328;2022-07-04T12:14:40;0.82;;;0.80;;
2874;SDS011;1445;52.600;13.328;2022-07-04T12:17:20;1.60;;;0.73;;
2874;SDS011;1445;52.600;13.328;2022-07-04T12:19:56;1.45;;;0.75;;
2874;SDS011;1445;52.600;13.328;2022-07-04T12:22:24;2.58;;;0.80;;
2874;SDS011;1445;52.600;13.328;2022-07-04T12:24:49;3.03;;;0.98;;
2874;SDS011;1445;52.600;13.328;2022-07-04T12:27:16;2.67;;;0.70;;
2874;SDS011;1445;52.600;13.328;2022-07-04T12:29:46;0.80;;;0.60;;
2874;SDS011;1445;52.600;13.328;2022-07-04T12:32:15;1.20;;;0.70;;
2874;SDS011;1445;52.600;13.328;2022-07-04T12:34:41;2.00;;;1.15;;
2874;SDS011;1445;52.600;13.328;2022-07-04T12:37:13;1.58;;;0.68;;
2874;SDS011;1445;52.600;13.328;2022-07-04T12:39:40;1.73;;;0.80;;
2874;SDS011;1445;52.600;13.328;2022-07-04T12:44:38;0.98;;;0.70;;
2874;SDS011;1445;52.600;13.328;2022-07-04T12:47:04;2.65;;;1.17;;
2874;SDS011;1445;52.600;13.328;2022-07-04T12:49:31;2.40;;;0.68;;
2874;SDS011;1445;52.600;13.328;2022-07-04T12:52:08;0.93;;;0.60;;
2874;SDS011;1445;52.600;13.328;2022-07-04T12:54:35;1.27;;;0.98;;
2874;SDS011;1445;52.600;13.328;2022-07-04T12:57:05;1.80;;;0.82;;
2874;SDS011;1445;52.600;13.328;2022-07-04T12:59:43;1.85;;;0.70;;
2874;SDS011;1445;52.600;13.328;2022-07-04T13:02:09;1.52;;;0.80;;
2874;SDS011;1445;52.600;13.328;2022-07-04T13:04:37;1.20;;;0.63;;
2874;SDS011;1445;52.600;13.328;2022-07-04T13:07:12;2.25;;;0.98;;
2874;SDS011;1445;52.600;13.328;2022-07-04T13:09:40;1.58;;;0.75;;
2874;SDS011;1445;52.600;13.328;2022-07-04T13:12:10;0.77;;;0.57;;
2874;SDS011;1445;52.600;13.328;2022-07-04T13:14:56;2.85;;;1.25;;
2874;SDS011;1445;52.600;13.328;2022-07-04T13:17:23;2.55;;;0.80;;
2874;SDS011;1445;52.600;13.328;2022-07-04T13:19:50;1.98;;;0.70;;
2874;SDS011;1445;52.600;13.328;2022-07-04T13:22:20;1.30;;;0.70;;
2874;SDS011;1445;52.600;13.328;2022-07-04T13:24:48;1.35;;;0.80;;
2874;SDS011;1445;52.600;13.328;2022-07-04T13:27:14;1.00;;;0.60;;
2874;SDS011;1445;52.600;13.328;2022-07-04T13:29:40;1.30;;;0.70;;
2874;SDS011;1445;52.600;13.328;2022-07-04T13:32:05;2.47;;;0.85;;
2874;SDS011;1445;52.600;13.328;2022-07-04T13:34:31;1.42;;;0.85;;
2874;SDS011;1445;52.600;13.328;2022-07-04T13:36:56;1.17;;;0.80;;
2874;SDS011;1445;52.600;13.328;2022-07-04T13:39:23;1.17;;;0.80;;
2874;SDS011;1445;52.600;13.328;2022-07-04T13:41:48;1.33;;;0.90;;
2874;SDS011;1445;52.600;13.328;2022-07-04T13:44:14;2.35;;;0.70;;
2874;SDS011;1445;52.600;13.328;2022-07-04T13:46:41;1.30;;;0.70;;
2874;SDS011;1445;52.600;13.328;2022-07-04T13:49:07;0.90;;;0.77;;
2874;SDS011;1445;52.600;13.328;2022-07-04T13:51:33;1.52;;;0.70;;
2874;SDS011;1445;52.600;13.328;2022-07-04T13:53:59;3.28;;;0.85;;
2874;SDS011;1445;52.600;13.328;2022-07-04T13:56:25;1.35;;;0.80;;
2874;SDS011;1445;52.600;13.328;2022-07-04T13:58:51;0.80;;;0.60;;
2874;SDS011;1445;52.600;13.328;2022-07-04T14:01:17;2.58;;;0.80;;
2874;SDS011;1445;52.600;13.328;2022-07-04T14:03:44;2.13;;;0.90;;
2874;SDS011;1445;52.600;13.328;2022-07-04T14:06:13;2.25;;;0.60;;
2874;SDS011;1445;52.600;13.328;2022-07-04T14:08:40;1.73;;;0.73;;
2874;SDS011;1445;52.600;13.328;2022-07-04T14:11:06;1.52;;;0.60;;
2874;SDS011;1445;52.600;13.328;2022-07-04T14:13:31;0.77;;;0.60;;
2874;SDS011;1445;52.600;13.328;2022-07-04T14:15:56;0.75;;;0.65;;
2874;SDS011;1445;52.600;13.328;2022-07-04T14:18:22;1.42;;;0.60;;
2874;SDS011;1445;52.600;13.328;2022-07-04T14:20:47;2.22;;;0.80;;
2874;SDS011;1445;52.600;13.328;2022-07-04T14:23:14;1.70;;;0.70;;
2874;SDS011;1445;52.600;13.328;2022-07-04T14:26:00;3.45;;;1.70;;
2874;SDS011;1445;52.600;13.328;2022-07-04T14:28:25;2.15;;;0.80;;
2874;SDS011;1445;52.600;13.328;2022-07-04T14:30:51;1.55;;;0.70;;
2874;SDS011;1445;52.600;13.328;2022-07-04T14:33:16;1.13;;;1.00;;
2874;SDS011;1445;52.600;13.328;2022-07-04T14:35:42;1.85;;;0.80;;
2874;SDS011;1445;52.600;13.328;2022-07-04T14:38:07;1.00;;;0.70;;
2874;SDS011;1445;52.600;13.328;2022-07-04T14:40:32;1.38;;;0.90;;
2874;SDS011;1445;52.600;13.328;2022-07-04T14:42:58;1.42;;;0.80;;
2874;SDS011;1445;52.600;13.328;2022-07-04T14:45:23;1.63;;;0.90;;
2874;SDS011;1445;52.600;13.328;2022-07-04T14:47:48;1.35;;;0.90;;
2874;SDS011;1445;52.600;13.328;2022-07-04T14:50:14;1.00;;;0.80;;
2874;SDS011;1445;52.600;13.328;2022-07-04T14:52:39;1.35;;;1.05;;
2874;SDS011;1445;52.600;13.328;2022-07-04T14:55:05;1.35;;;0.82;;
2874;SDS011;1445;52.600;13.328;2022-07-04T14:57:30;1.83;;;0.80;;
2874;SDS011;1445;52.600;13.328;2022-07-04T14:59:56;1.00;;;0.70;;
2874;SDS011;1445;52.600;13.328;2022-07-04T15:02:21;1.30;;;0.75;;
2874;SDS011;1445;52.600;13.328;2022-07-04T15:04:47;1.10;;;0.80;;
2874;SDS011;1445;52.600;13.328;2022-07-04T15:07:12;1.08;;;0.80;;
2874;SDS011;1445;52.600;13.328;2022-07-04T15:09:37;1.33;;;0.98;;
2874;SDS011;1445;52.600;13.328;2022-07-04T15:12:03;1.52;;;0.95;;
2874;SDS011;1445;52.600;13.328;2022-07-04T15:14:28;1.92;;;0.88;;
2874;SDS011;1445;52.600;13.328;2022-07-04T15:16:54;1.27;;;0.90;;
2874;SDS011;1445;52.600;13.328;2022-07-04T15:19:19;2.00;;;1.05;;
2874;SDS011;1445;52.600;13.328;2022-07-04T15:21:45;2.10;;;0.90;;
2874;SDS011;1445;52.600;13.328;2022-07-04T15:24:29;0.98;;;0.60;;
2874;SDS011;1445;52.600;13.328;2022-07-04T15:26:54;1.35;;;0.80;;
2874;SDS011;1445;52.600;13.328;2022-07-04T15:29:21;1.45;;;0.93;;
2874;SDS011;1445;52.600;13.328;2022-07-04T15:31:48;3.20;;;0.90;;
2874;SDS011;1445;52.600;13.328;2022-07-04T15:34:14;2.08;;;0.73;;
2874;SDS011;1445;52.600;13.328;2022-07-04T15:36:40;1.83;;;0.80;;
2874;SDS011;1445;52.600;13.328;2022-07-04T15:39:07;1.85;;;0.90;;
2874;SDS011;1445;52.600;13.328;2022-07-04T15:41:34;3.00;;;0.90;;
2874;SDS011;1445;52.600;13.328;2022-07-04T15:44:00;1.73;;;0.90;;